Gimhae International Airport
RKPK : now visible

Airfield :











YOU CAN JOIN US ON...

 
LOGIN :

Register | Disclaimer

   EN    FR    IT 

 









Legend :    VFR   Marginal VFR   IFR   Intensive IFR   Very Intensive IFR
Visi :
Ceiling :
>= 8 km
>= 3000ft
5 to 8 km
1000 to 3000 ft
1500m to 5 km
500 to 1000 ft
800 to 1500m
200 to 500 ft
< 800m
< 200 ft
Symbols :   Thunderstorms  Fog  Heavy snow  Heavy precipitations  Wind > 20 kt







- Airport Elevation : 6 ft
- IATA code : PUS


RKPK - Gimhae International

CURRENT METAR :
  • 210800Z 22007KT 9000 SCT050 SCT200 10/00 Q1023

EXPIRED METARs :
  • 210700Z 18007KT 9000 FEW050 FEW200 11/M01 Q1024
  • 210600Z 25004KT 8000 FEW040 11/M01 Q1023
  • 210500Z 22005KT 8000 FEW040 11/00 Q1024

TAF TAF RKPK
Valid from the 21 at 06:00 until the 22 at 12:00 UTC


210500Z 2106/2212 18006KT 8000 SCT030 BKN200 TN01/2121Z TX12/2206Z
BECMG 2110/2111 33006KT
RKRR FIR / Asia



MET'MAP, your aeronautical weather chart ! - Copyright ORBIFLY December 2007 - Disclaimer

ORBIFLY MET'MAP TEAM :

Programming & Development : Alexandra Zaïnal
Concept & Development : Baudouin d'Aumeries
Co-Development & Prog : Marc-Olivier Méhu
Technical & hardware support : Manuel Goepfert

Contact : metmap@orbifly.com




SOURCES & CREDITS :

   NOAA       Earth
Advisory